sensor_id;sensor_type;location;lat;lon;timestamp;P1;durP1;ratioP1;P2;durP2;ratioP2
33738;SDS011;20063;51.730;11.110;2022-09-19T00:01:34;7.18;;;1.67;;
33738;SDS011;20063;51.730;11.110;2022-09-19T00:04:03;5.65;;;2.35;;
33738;SDS011;20063;51.730;11.110;2022-09-19T00:06:42;7.28;;;1.70;;
33738;SDS011;20063;51.730;11.110;2022-09-19T00:09:11;3.63;;;1.67;;
33738;SDS011;20063;51.730;11.110;2022-09-19T00:11:39;6.32;;;1.80;;
33738;SDS011;20063;51.730;11.110;2022-09-19T00:14:06;4.60;;;2.05;;
33738;SDS011;20063;51.730;11.110;2022-09-19T00:16:35;7.43;;;2.30;;
33738;SDS011;20063;51.730;11.110;2022-09-19T00:19:07;8.20;;;2.60;;
33738;SDS011;20063;51.730;11.110;2022-09-19T00:21:36;8.00;;;2.65;;
33738;SDS011;20063;51.730;11.110;2022-09-19T00:24:04;9.95;;;2.95;;
33738;SDS011;20063;51.730;11.110;2022-09-19T00:26:49;7.28;;;2.95;;
33738;SDS011;20063;51.730;11.110;2022-09-19T00:29:16;5.55;;;2.63;;
33738;SDS011;20063;51.730;11.110;2022-09-19T00:31:43;9.50;;;3.75;;
33738;SDS011;20063;51.730;11.110;2022-09-19T00:34:13;8.65;;;3.50;;
33738;SDS011;20063;51.730;11.110;2022-09-19T00:36:40;9.43;;;3.58;;
33738;SDS011;20063;51.730;11.110;2022-09-19T00:39:07;6.32;;;3.25;;
33738;SDS011;20063;51.730;11.110;2022-09-19T00:41:34;5.80;;;3.42;;
33738;SDS011;20063;51.730;11.110;2022-09-19T00:44:03;11.60;;;3.72;;
33738;SDS011;20063;51.730;11.110;2022-09-19T00:46:31;8.73;;;3.83;;
33738;SDS011;20063;51.730;11.110;2022-09-19T00:49:03;11.95;;;3.97;;
33738;SDS011;20063;51.730;11.110;2022-09-19T00:51:33;7.97;;;3.90;;
33738;SDS011;20063;51.730;11.110;2022-09-19T00:54:05;10.88;;;4.25;;
33738;SDS011;20063;51.730;11.110;2022-09-19T00:56:38;12.98;;;4.45;;
33738;SDS011;20063;51.730;11.110;2022-09-19T00:59:10;11.73;;;4.28;;
33738;SDS011;20063;51.730;11.110;2022-09-19T01:01:36;9.85;;;4.85;;
33738;SDS011;20063;51.730;11.110;2022-09-19T01:04:12;9.73;;;4.63;;
33738;SDS011;20063;51.730;11.110;2022-09-19T01:06:56;9.43;;;6.53;;
33738;SDS011;20063;51.730;11.110;2022-09-19T01:20:27;13.63;;;6.40;;
33738;SDS011;20063;51.730;11.110;2022-09-19T01:29:05;12.23;;;7.20;;
33738;SDS011;20063;51.730;11.110;2022-09-19T01:31:37;16.52;;;8.38;;
33738;SDS011;20063;51.730;11.110;2022-09-19T01:34:12;13.98;;;8.05;;
33738;SDS011;20063;51.730;11.110;2022-09-19T01:37:07;18.10;;;10.40;;
33738;SDS011;20063;51.730;11.110;2022-09-19T01:39:38;17.63;;;10.77;;
33738;SDS011;20063;51.730;11.110;2022-09-19T01:42:07;19.35;;;11.10;;
33738;SDS011;20063;51.730;11.110;2022-09-19T01:44:37;18.05;;;12.07;;
33738;SDS011;20063;51.730;11.110;2022-09-19T01:49:55;24.15;;;12.93;;
33738;SDS011;20063;51.730;11.110;2022-09-19T01:52:38;19.83;;;12.57;;
33738;SDS011;20063;51.730;11.110;2022-09-19T01:55:21;16.10;;;12.10;;
33738;SDS011;20063;51.730;11.110;2022-09-19T02:01:32;19.55;;;11.35;;
33738;SDS011;20063;51.730;11.110;2022-09-19T02:03:51;15.07;;;9.95;;
33738;SDS011;20063;51.730;11.110;2022-09-19T02:09:44;18.50;;;8.63;;
33738;SDS011;20063;51.730;11.110;2022-09-19T02:12:14;13.80;;;8.88;;
33738;SDS011;20063;51.730;11.110;2022-09-19T02:14:43;13.98;;;8.60;;
33738;SDS011;20063;51.730;11.110;2022-09-19T02:20:31;12.40;;;8.45;;
33738;SDS011;20063;51.730;11.110;2022-09-19T02:23:09;11.93;;;7.15;;
33738;SDS011;20063;51.730;11.110;2022-09-19T02:25:52;11.05;;;7.57;;
33738;SDS011;20063;51.730;11.110;2022-09-19T02:28:34;14.95;;;7.20;;
33738;SDS011;20063;51.730;11.110;2022-09-19T02:31:06;8.98;;;7.00;;
33738;SDS011;20063;51.730;11.110;2022-09-19T02:33:34;12.82;;;7.57;;
33738;SDS011;20063;51.730;11.110;2022-09-19T02:36:18;14.18;;;7.72;;
33738;SDS011;20063;51.730;11.110;2022-09-19T02:39:12;18.20;;;7.60;;
33738;SDS011;20063;51.730;11.110;2022-09-19T02:41:48;15.60;;;9.50;;
33738;SDS011;20063;51.730;11.110;2022-09-19T02:47:38;15.10;;;10.00;;
33738;SDS011;20063;51.730;11.110;2022-09-19T02:53:06;14.27;;;11.43;;
33738;SDS011;20063;51.730;11.110;2022-09-19T02:55:38;13.55;;;11.93;;
33738;SDS011;20063;51.730;11.110;2022-09-19T02:58:11;13.35;;;11.13;;
33738;SDS011;20063;51.730;11.110;2022-09-19T03:00:39;24.63;;;11.48;;
33738;SDS011;20063;51.730;11.110;2022-09-19T03:03:11;18.75;;;10.75;;
33738;SDS011;20063;51.730;11.110;2022-09-19T03:06:05;13.90;;;9.05;;
33738;SDS011;20063;51.730;11.110;2022-09-19T03:08:34;15.20;;;9.27;;
33738;SDS011;20063;51.730;11.110;2022-09-19T03:11:01;18.13;;;8.50;;
33738;SDS011;20063;51.730;11.110;2022-09-19T03:13:32;15.57;;;7.38;;
33738;SDS011;20063;51.730;11.110;2022-09-19T03:16:01;12.50;;;7.93;;
33738;SDS011;20063;51.730;11.110;2022-09-19T03:18:33;20.58;;;7.82;;
33738;SDS011;20063;51.730;11.110;2022-09-19T03:21:01;16.63;;;9.38;;
33738;SDS011;20063;51.730;11.110;2022-09-19T03:23:30;13.25;;;8.02;;
33738;SDS011;20063;51.730;11.110;2022-09-19T03:26:08;16.83;;;8.38;;
33738;SDS011;20063;51.730;11.110;2022-09-19T03:28:36;12.63;;;7.22;;
33738;SDS011;20063;51.730;11.110;2022-09-19T03:31:03;20.17;;;9.35;;
33738;SDS011;20063;51.730;11.110;2022-09-19T03:33:29;15.95;;;8.52;;
33738;SDS011;20063;51.730;11.110;2022-09-19T03:36:01;13.02;;;8.10;;
33738;SDS011;20063;51.730;11.110;2022-09-19T03:38:33;16.20;;;7.43;;
33738;SDS011;20063;51.730;11.110;2022-09-19T03:41:03;16.40;;;7.80;;
33738;SDS011;20063;51.730;11.110;2022-09-19T03:43:28;16.52;;;7.53;;
33738;SDS011;20063;51.730;11.110;2022-09-19T03:45:55;7.90;;;6.00;;
33738;SDS011;20063;51.730;11.110;2022-09-19T03:48:23;11.05;;;6.00;;
33738;SDS011;20063;51.730;11.110;2022-09-19T03:50:49;11.02;;;6.07;;
33738;SDS011;20063;51.730;11.110;2022-09-19T03:53:14;9.43;;;5.43;;
33738;SDS011;20063;51.730;11.110;2022-09-19T03:55:41;12.02;;;4.78;;
33738;SDS011;20063;51.730;11.110;2022-09-19T03:58:07;9.65;;;4.47;;
33738;SDS011;20063;51.730;11.110;2022-09-19T04:00:36;10.25;;;4.95;;
33738;SDS011;20063;51.730;11.110;2022-09-19T04:03:01;11.27;;;4.53;;
33738;SDS011;20063;51.730;11.110;2022-09-19T04:05:27;9.57;;;4.70;;
33738;SDS011;20063;51.730;11.110;2022-09-19T04:07:53;7.78;;;4.00;;
33738;SDS011;20063;51.730;11.110;2022-09-19T04:10:20;9.48;;;3.25;;
33738;SDS011;20063;51.730;11.110;2022-09-19T04:12:45;6.53;;;3.03;;
33738;SDS011;20063;51.730;11.110;2022-09-19T04:15:13;4.00;;;3.00;;
33738;SDS011;20063;51.730;11.110;2022-09-19T04:17:40;10.73;;;3.78;;
33738;SDS011;20063;51.730;11.110;2022-09-19T04:20:05;5.05;;;3.05;;
33738;SDS011;20063;51.730;11.110;2022-09-19T04:22:31;2.83;;;2.30;;
33738;SDS011;20063;51.730;11.110;2022-09-19T04:24:58;2.92;;;2.47;;
33738;SDS011;20063;51.730;11.110;2022-09-19T04:27:24;9.90;;;2.78;;
33738;SDS011;20063;51.730;11.110;2022-09-19T04:29:50;5.75;;;2.90;;
33738;SDS011;20063;51.730;11.110;2022-09-19T04:32:15;6.93;;;3.15;;
33738;SDS011;20063;51.730;11.110;2022-09-19T04:34:41;8.25;;;3.33;;
33738;SDS011;20063;51.730;11.110;2022-09-19T04:37:08;7.70;;;3.05;;
33738;SDS011;20063;51.730;11.110;2022-09-19T04:39:34;9.77;;;2.95;;
33738;SDS011;20063;51.730;11.110;2022-09-19T04:41:59;6.03;;;2.67;;
33738;SDS011;20063;51.730;11.110;2022-09-19T04:44:26;9.57;;;3.90;;
33738;SDS011;20063;51.730;11.110;2022-09-19T04:46:54;5.55;;;3.47;;
33738;SDS011;20063;51.730;11.110;2022-09-19T04:49:20;9.48;;;4.05;;
33738;SDS011;20063;51.730;11.110;2022-09-19T04:51:46;8.77;;;3.67;;
33738;SDS011;20063;51.730;11.110;2022-09-19T04:54:12;9.45;;;3.47;;
33738;SDS011;20063;51.730;11.110;2022-09-19T04:56:39;6.65;;;3.33;;
33738;SDS011;20063;51.730;11.110;2022-09-19T04:59:11;7.45;;;3.63;;
33738;SDS011;20063;51.730;11.110;2022-09-19T05:01:37;3.95;;;3.22;;
33738;SDS011;20063;51.730;11.110;2022-09-19T05:04:03;7.93;;;3.53;;
33738;SDS011;20063;51.730;11.110;2022-09-19T05:06:35;11.68;;;3.40;;
33738;SDS011;20063;51.730;11.110;2022-09-19T05:09:10;9.98;;;3.22;;
33738;SDS011;20063;51.730;11.110;2022-09-19T05:11:36;3.15;;;2.80;;
33738;SDS011;20063;51.730;11.110;2022-09-19T05:14:10;9.88;;;2.75;;
33738;SDS011;20063;51.730;11.110;2022-09-19T05:16:52;10.02;;;2.95;;
33738;SDS011;20063;51.730;11.110;2022-09-19T05:19:19;8.05;;;3.75;;
33738;SDS011;20063;51.730;11.110;2022-09-19T05:21:47;13.30;;;4.93;;
33738;SDS011;20063;51.730;11.110;2022-09-19T05:24:13;6.60;;;2.70;;
33738;SDS011;20063;51.730;11.110;2022-09-19T05:26:40;4.60;;;2.72;;
33738;SDS011;20063;51.730;11.110;2022-09-19T05:29:06;8.00;;;4.20;;
33738;SDS011;20063;51.730;11.110;2022-09-19T05:31:33;6.43;;;2.80;;
33738;SDS011;20063;51.730;11.110;2022-09-19T05:34:00;8.80;;;3.30;;
33738;SDS011;20063;51.730;11.110;2022-09-19T05:36:26;10.60;;;3.38;;
33738;SDS011;20063;51.730;11.110;2022-09-19T05:38:52;10.25;;;2.67;;
33738;SDS011;20063;51.730;11.110;2022-09-19T05:41:18;6.30;;;2.55;;
33738;SDS011;20063;51.730;11.110;2022-09-19T05:43:44;9.80;;;3.05;;
33738;SDS011;20063;51.730;11.110;2022-09-19T05:46:09;4.85;;;2.50;;
33738;SDS011;20063;51.730;11.110;2022-09-19T05:48:35;5.13;;;2.72;;
33738;SDS011;20063;51.730;11.110;2022-09-19T05:51:03;10.57;;;4.30;;
33738;SDS011;20063;51.730;11.110;2022-09-19T05:53:29;12.60;;;4.30;;
33738;SDS011;20063;51.730;11.110;2022-09-19T05:56:13;5.80;;;2.22;;
33738;SDS011;20063;51.730;11.110;2022-09-19T05:58:39;11.15;;;2.40;;
33738;SDS011;20063;51.730;11.110;2022-09-19T06:01:08;3.10;;;1.85;;
33738;SDS011;20063;51.730;11.110;2022-09-19T06:03:35;4.72;;;1.70;;
33738;SDS011;20063;51.730;11.110;2022-09-19T06:06:10;4.47;;;2.20;;
33738;SDS011;20063;51.730;11.110;2022-09-19T06:08:39;6.70;;;2.03;;
33738;SDS011;20063;51.730;11.110;2022-09-19T06:11:05;10.88;;;2.17;;
33738;SDS011;20063;51.730;11.110;2022-09-19T06:13:32;10.88;;;3.38;;
33738;SDS011;20063;51.730;11.110;2022-09-19T06:16:19;3.63;;;1.98;;
33738;SDS011;20063;51.730;11.110;2022-09-19T06:18:45;4.97;;;1.50;;
33738;SDS011;20063;51.730;11.110;2022-09-19T06:21:17;3.85;;;1.45;;
33738;SDS011;20063;51.730;11.110;2022-09-19T06:23:42;5.80;;;1.52;;
33738;SDS011;20063;51.730;11.110;2022-09-19T06:26:11;2.65;;;1.45;;
33738;SDS011;20063;51.730;11.110;2022-09-19T06:28:37;6.53;;;1.48;;
33738;SDS011;20063;51.730;11.110;2022-09-19T06:31:09;4.47;;;1.65;;
33738;SDS011;20063;51.730;11.110;2022-09-19T06:33:34;11.43;;;2.10;;
33738;SDS011;20063;51.730;11.110;2022-09-19T06:36:02;7.93;;;1.45;;
33738;SDS011;20063;51.730;11.110;2022-09-19T06:38:28;4.25;;;1.77;;
33738;SDS011;20063;51.730;11.110;2022-09-19T06:40:56;4.10;;;1.08;;
33738;SDS011;20063;51.730;11.110;2022-09-19T06:43:21;5.38;;;1.30;;
33738;SDS011;20063;51.730;11.110;2022-09-19T06:45:47;5.07;;;1.15;;
33738;SDS011;20063;51.730;11.110;2022-09-19T06:48:15;5.75;;;1.50;;
33738;SDS011;20063;51.730;11.110;2022-09-19T06:50:43;5.13;;;1.08;;
33738;SDS011;20063;51.730;11.110;2022-09-19T06:53:14;7.53;;;1.33;;
33738;SDS011;20063;51.730;11.110;2022-09-19T06:55:41;11.38;;;1.70;;
33738;SDS011;20063;51.730;11.110;2022-09-19T06:58:13;5.72;;;1.38;;
33738;SDS011;20063;51.730;11.110;2022-09-19T07:00:40;7.32;;;1.30;;
33738;SDS011;20063;51.730;11.110;2022-09-19T07:03:16;3.35;;;1.20;;
33738;SDS011;20063;51.730;11.110;2022-09-19T07:05:42;7.35;;;1.33;;
33738;SDS011;20063;51.730;11.110;2022-09-19T07:08:12;8.52;;;1.65;;
33738;SDS011;20063;51.730;11.110;2022-09-19T07:10:39;10.38;;;1.95;;
33738;SDS011;20063;51.730;11.110;2022-09-19T07:13:08;5.55;;;1.83;;
33738;SDS011;20063;51.730;11.110;2022-09-19T07:15:39;10.40;;;1.50;;
33738;SDS011;20063;51.730;11.110;2022-09-19T07:18:05;10.05;;;1.55;;
33738;SDS011;20063;51.730;11.110;2022-09-19T07:20:35;8.02;;;1.10;;
33738;SDS011;20063;51.730;11.110;2022-09-19T07:23:07;8.13;;;1.33;;
33738;SDS011;20063;51.730;11.110;2022-09-19T07:25:39;7.55;;;1.38;;
33738;SDS011;20063;51.730;11.110;2022-09-19T07:28:06;3.05;;;1.25;;
33738;SDS011;20063;51.730;11.110;2022-09-19T07:30:35;18.13;;;2.55;;
33738;SDS011;20063;51.730;11.110;2022-09-19T07:33:09;9.63;;;1.52;;
33738;SDS011;20063;51.730;11.110;2022-09-19T07:35:37;11.77;;;1.70;;
33738;SDS011;20063;51.730;11.110;2022-09-19T07:38:10;4.93;;;1.35;;
33738;SDS011;20063;51.730;11.110;2022-09-19T07:40:39;5.50;;;0.88;;
33738;SDS011;20063;51.730;11.110;2022-09-19T07:43:05;11.95;;;1.40;;
33738;SDS011;20063;51.730;11.110;2022-09-19T07:45:32;17.25;;;2.47;;
33738;SDS011;20063;51.730;11.110;2022-09-19T07:47:58;7.03;;;1.88;;
33738;SDS011;20063;51.730;11.110;2022-09-19T07:50:24;7.32;;;1.70;;
33738;SDS011;20063;51.730;11.110;2022-09-19T07:52:59;17.20;;;1.83;;
33738;SDS011;20063;51.730;11.110;2022-09-19T07:55:26;15.35;;;1.98;;
33738;SDS011;20063;51.730;11.110;2022-09-19T07:57:53;12.55;;;1.60;;
33738;SDS011;20063;51.730;11.110;2022-09-19T08:00:21;6.90;;;1.30;;
33738;SDS011;20063;51.730;11.110;2022-09-19T08:03:01;9.88;;;1.73;;
33738;SDS011;20063;51.730;11.110;2022-09-19T08:05:29;10.52;;;1.85;;
33738;SDS011;20063;51.730;11.110;2022-09-19T08:07:59;11.68;;;1.65;;
33738;SDS011;20063;51.730;11.110;2022-09-19T08:10:24;16.42;;;1.67;;
33738;SDS011;20063;51.730;11.110;2022-09-19T08:12:50;21.35;;;2.20;;
33738;SDS011;20063;51.730;11.110;2022-09-19T08:15:19;16.08;;;2.40;;
33738;SDS011;20063;51.730;11.110;2022-09-19T08:18:09;12.70;;;2.10;;
33738;SDS011;20063;51.730;11.110;2022-09-19T08:20:35;12.25;;;1.70;;
33738;SDS011;20063;51.730;11.110;2022-09-19T08:23:08;17.98;;;2.03;;
33738;SDS011;20063;51.730;11.110;2022-09-19T08:25:36;17.05;;;2.28;;
33738;SDS011;20063;51.730;11.110;2022-09-19T08:28:08;14.60;;;2.13;;
33738;SDS011;20063;51.730;11.110;2022-09-19T08:30:36;8.43;;;1.52;;
33738;SDS011;20063;51.730;11.110;2022-09-19T08:33:02;19.08;;;1.98;;
33738;SDS011;20063;51.730;11.110;2022-09-19T08:35:29;19.25;;;2.25;;
33738;SDS011;20063;51.730;11.110;2022-09-19T08:37:58;12.77;;;1.98;;
33738;SDS011;20063;51.730;11.110;2022-09-19T08:40:29;18.98;;;2.30;;
33738;SDS011;20063;51.730;11.110;2022-09-19T08:43:05;21.65;;;1.75;;
33738;SDS011;20063;51.730;11.110;2022-09-19T08:48:46;9.00;;;1.23;;
33738;SDS011;20063;51.730;11.110;2022-09-19T08:54:16;15.80;;;2.17;;
33738;SDS011;20063;51.730;11.110;2022-09-19T08:56:46;10.63;;;1.65;;
33738;SDS011;20063;51.730;11.110;2022-09-19T08:59:21;8.88;;;1.67;;
33738;SDS011;20063;51.730;11.110;2022-09-19T09:01:48;9.30;;;1.30;;
33738;SDS011;20063;51.730;11.110;2022-09-19T09:04:30;10.77;;;1.52;;
33738;SDS011;20063;51.730;11.110;2022-09-19T09:07:08;15.32;;;1.73;;
33738;SDS011;20063;51.730;11.110;2022-09-19T09:09:50;9.98;;;2.15;;
33738;SDS011;20063;51.730;11.110;2022-09-19T09:20:59;15.98;;;2.58;;
33738;SDS011;20063;51.730;11.110;2022-09-19T09:23:45;18.00;;;2.25;;
33738;SDS011;20063;51.730;11.110;2022-09-19T09:26:21;9.27;;;1.85;;
33738;SDS011;20063;51.730;11.110;2022-09-19T09:28:54;12.70;;;3.28;;
33738;SDS011;20063;51.730;11.110;2022-09-19T09:31:28;12.57;;;1.83;;
33738;SDS011;20063;51.730;11.110;2022-09-19T09:39:52;14.02;;;2.72;;
33738;SDS011;20063;51.730;11.110;2022-09-19T09:42:42;14.60;;;2.20;;
33738;SDS011;20063;51.730;11.110;2022-09-19T09:53:57;14.93;;;3.50;;
33738;SDS011;20063;51.730;11.110;2022-09-19T09:57:07;15.57;;;2.67;;
33738;SDS011;20063;51.730;11.110;2022-09-19T10:00:06;11.27;;;2.33;;
33738;SDS011;20063;51.730;11.110;2022-09-19T10:02:59;15.35;;;2.22;;
33738;SDS011;20063;51.730;11.110;2022-09-19T10:05:55;12.00;;;2.20;;
33738;SDS011;20063;51.730;11.110;2022-09-19T10:11:03;11.43;;;2.05;;
33738;SDS011;20063;51.730;11.110;2022-09-19T10:13:37;10.35;;;2.10;;
33738;SDS011;20063;51.730;11.110;2022-09-19T10:16:09;13.77;;;2.42;;
33738;SDS011;20063;51.730;11.110;2022-09-19T10:18:47;8.50;;;1.70;;
33738;SDS011;20063;51.730;11.110;2022-09-19T10:21:22;15.40;;;2.72;;
33738;SDS011;20063;51.730;11.110;2022-09-19T10:23:48;10.25;;;2.00;;
33738;SDS011;20063;51.730;11.110;2022-09-19T10:26:18;7.93;;;1.88;;
33738;SDS011;20063;51.730;11.110;2022-09-19T10:28:52;16.52;;;2.25;;
33738;SDS011;20063;51.730;11.110;2022-09-19T10:31:31;15.52;;;2.67;;
33738;SDS011;20063;51.730;11.110;2022-09-19T10:34:03;12.70;;;1.92;;
33738;SDS011;20063;51.730;11.110;2022-09-19T10:36:44;16.90;;;2.88;;
33738;SDS011;20063;51.730;11.110;2022-09-19T10:39:13;21.33;;;6.35;;
33738;SDS011;20063;51.730;11.110;2022-09-19T10:41:41;14.27;;;3.38;;
33738;SDS011;20063;51.730;11.110;2022-09-19T10:44:24;12.98;;;3.40;;
33738;SDS011;20063;51.730;11.110;2022-09-19T10:46:54;10.18;;;2.70;;
33738;SDS011;20063;51.730;11.110;2022-09-19T10:49:26;8.88;;;1.98;;
33738;SDS011;20063;51.730;11.110;2022-09-19T10:51:54;9.82;;;1.85;;
33738;SDS011;20063;51.730;11.110;2022-09-19T10:54:32;12.27;;;2.03;;
33738;SDS011;20063;51.730;11.110;2022-09-19T10:57:03;12.88;;;2.05;;
33738;SDS011;20063;51.730;11.110;2022-09-19T10:59:33;10.40;;;2.90;;
33738;SDS011;20063;51.730;11.110;2022-09-19T11:04:52;7.38;;;2.17;;
33738;SDS011;20063;51.730;11.110;2022-09-19T11:07:22;9.50;;;1.50;;
33738;SDS011;20063;51.730;11.110;2022-09-19T11:09:51;10.48;;;2.28;;
33738;SDS011;20063;51.730;11.110;2022-09-19T11:12:23;8.35;;;1.67;;
33738;SDS011;20063;51.730;11.110;2022-09-19T11:14:50;12.18;;;2.10;;
33738;SDS011;20063;51.730;11.110;2022-09-19T11:22:56;8.95;;;2.53;;
33738;SDS011;20063;51.730;11.110;2022-09-19T11:28:23;9.68;;;1.92;;
33738;SDS011;20063;51.730;11.110;2022-09-19T11:31:07;4.13;;;1.67;;
33738;SDS011;20063;51.730;11.110;2022-09-19T11:45:16;5.53;;;2.25;;
33738;SDS011;20063;51.730;11.110;2022-09-19T11:53:33;8.55;;;1.25;;
33738;SDS011;20063;51.730;11.110;2022-09-19T12:01:32;7.88;;;1.60;;
33738;SDS011;20063;51.730;11.110;2022-09-19T12:04:23;9.80;;;2.17;;
33738;SDS011;20063;51.730;11.110;2022-09-19T12:12:05;12.23;;;1.92;;
33738;SDS011;20063;51.730;11.110;2022-09-19T12:14:46;7.18;;;2.22;;
33738;SDS011;20063;51.730;11.110;2022-09-19T12:17:37;4.95;;;1.80;;
33738;SDS011;20063;51.730;11.110;2022-09-19T12:20:18;14.23;;;2.55;;
33738;SDS011;20063;51.730;11.110;2022-09-19T12:22:57;5.82;;;1.90;;
33738;SDS011;20063;51.730;11.110;2022-09-19T12:26:02;6.03;;;1.88;;
33738;SDS011;20063;51.730;11.110;2022-09-19T12:28:31;5.88;;;1.20;;
33738;SDS011;20063;51.730;11.110;2022-09-19T12:31:01;15.43;;;2.22;;
33738;SDS011;20063;51.730;11.110;2022-09-19T12:33:34;10.40;;;1.38;;
33738;SDS011;20063;51.730;11.110;2022-09-19T12:38:58;2.45;;;1.10;;
33738;SDS011;20063;51.730;11.110;2022-09-19T12:41:46;6.68;;;1.98;;
33738;SDS011;20063;51.730;11.110;2022-09-19T12:44:32;3.35;;;1.35;;
33738;SDS011;20063;51.730;11.110;2022-09-19T12:56:04;6.90;;;0.88;;
33738;SDS011;20063;51.730;11.110;2022-09-19T12:58:54;3.33;;;1.00;;
33738;SDS011;20063;51.730;11.110;2022-09-19T13:10:00;4.80;;;0.95;;
33738;SDS011;20063;51.730;11.110;2022-09-19T13:17:57;4.55;;;0.95;;
33738;SDS011;20063;51.730;11.110;2022-09-19T13:20:45;4.82;;;1.35;;
33738;SDS011;20063;51.730;11.110;2022-09-19T13:23:31;5.45;;;1.17;;
33738;SDS011;20063;51.730;11.110;2022-09-19T13:26:13;8.32;;;1.17;;
33738;SDS011;20063;51.730;11.110;2022-09-19T13:28:45;1.63;;;0.65;;
33738;SDS011;20063;51.730;11.110;2022-09-19T13:31:12;3.50;;;0.80;;
33738;SDS011;20063;51.730;11.110;2022-09-19T13:33:55;3.33;;;0.60;;
33738;SDS011;20063;51.730;11.110;2022-09-19T13:38:50;12.60;;;1.10;;
33738;SDS011;20063;51.730;11.110;2022-09-19T13:41:25;3.35;;;0.90;;
33738;SDS011;20063;51.730;11.110;2022-09-19T13:44:35;1.33;;;0.60;;
33738;SDS011;20063;51.730;11.110;2022-09-19T13:47:09;4.20;;;1.27;;
33738;SDS011;20063;51.730;11.110;2022-09-19T13:49:51;6.72;;;1.17;;
33738;SDS011;20063;51.730;11.110;2022-09-19T13:52:26;5.13;;;0.95;;
33738;SDS011;20063;51.730;11.110;2022-09-19T13:57:38;3.78;;;1.00;;
33738;SDS011;20063;51.730;11.110;2022-09-19T14:00:08;6.57;;;0.80;;
33738;SDS011;20063;51.730;11.110;2022-09-19T14:03:01;8.07;;;1.67;;
33738;SDS011;20063;51.730;11.110;2022-09-19T14:05:30;9.50;;;1.20;;
33738;SDS011;20063;51.730;11.110;2022-09-19T14:07:59;5.03;;;0.95;;
33738;SDS011;20063;51.730;11.110;2022-09-19T14:12:59;5.40;;;1.30;;
33738;SDS011;20063;51.730;11.110;2022-09-19T14:15:31;4.78;;;1.15;;
33738;SDS011;20063;51.730;11.110;2022-09-19T14:21:02;15.30;;;2.13;;
33738;SDS011;20063;51.730;11.110;2022-09-19T14:23:36;4.43;;;1.33;;
33738;SDS011;20063;51.730;11.110;2022-09-19T14:37:27;16.75;;;5.10;;
33738;SDS011;20063;51.730;11.110;2022-09-19T14:48:47;10.25;;;3.80;;
33738;SDS011;20063;51.730;11.110;2022-09-19T14:51:29;8.63;;;2.60;;
33738;SDS011;20063;51.730;11.110;2022-09-19T14:54:16;9.35;;;2.80;;
33738;SDS011;20063;51.730;11.110;2022-09-19T14:59:25;8.32;;;3.28;;
33738;SDS011;20063;51.730;11.110;2022-09-19T15:01:52;9.40;;;3.95;;
33738;SDS011;20063;51.730;11.110;2022-09-19T15:04:21;6.25;;;2.28;;
33738;SDS011;20063;51.730;11.110;2022-09-19T15:06:51;6.00;;;3.08;;
33738;SDS011;20063;51.730;11.110;2022-09-19T15:09:28;5.57;;;1.50;;
33738;SDS011;20063;51.730;11.110;2022-09-19T15:11:56;8.82;;;2.03;;
33738;SDS011;20063;51.730;11.110;2022-09-19T15:14:26;8.18;;;1.73;;
33738;SDS011;20063;51.730;11.110;2022-09-19T15:17:07;7.20;;;2.22;;
33738;SDS011;20063;51.730;11.110;2022-09-19T15:19:56;12.25;;;2.78;;
33738;SDS011;20063;51.730;11.110;2022-09-19T15:24:48;6.50;;;1.95;;
33738;SDS011;20063;51.730;11.110;2022-09-19T15:27:28;4.05;;;1.52;;
33738;SDS011;20063;51.730;11.110;2022-09-19T15:30:06;5.85;;;1.30;;
33738;SDS011;20063;51.730;11.110;2022-09-19T15:32:34;6.75;;;2.65;;
33738;SDS011;20063;51.730;11.110;2022-09-19T15:35:06;4.90;;;1.30;;
33738;SDS011;20063;51.730;11.110;2022-09-19T15:37:40;7.45;;;2.63;;
33738;SDS011;20063;51.730;11.110;2022-09-19T15:40:07;7.15;;;1.85;;
33738;SDS011;20063;51.730;11.110;2022-09-19T15:42:48;8.13;;;2.33;;
33738;SDS011;20063;51.730;11.110;2022-09-19T15:47:53;3.13;;;1.80;;
33738;SDS011;20063;51.730;11.110;2022-09-19T15:50:25;4.82;;;2.72;;
33738;SDS011;20063;51.730;11.110;2022-09-19T15:52:55;8.50;;;1.67;;
33738;SDS011;20063;51.730;11.110;2022-09-19T15:55:25;13.02;;;1.83;;
33738;SDS011;20063;51.730;11.110;2022-09-19T15:57:56;2.58;;;1.02;;
33738;SDS011;20063;51.730;11.110;2022-09-19T16:00:24;9.30;;;2.13;;
33738;SDS011;20063;51.730;11.110;2022-09-19T16:02:55;10.10;;;2.40;;
33738;SDS011;20063;51.730;11.110;2022-09-19T16:05:22;8.63;;;2.47;;
33738;SDS011;20063;51.730;11.110;2022-09-19T16:07:54;4.43;;;2.05;;
33738;SDS011;20063;51.730;11.110;2022-09-19T16:10:40;11.75;;;2.97;;
33738;SDS011;20063;51.730;11.110;2022-09-19T16:16:25;11.43;;;1.65;;
33738;SDS011;20063;51.730;11.110;2022-09-19T16:18:51;6.07;;;1.20;;
33738;SDS011;20063;51.730;11.110;2022-09-19T16:21:21;6.40;;;1.65;;
33738;SDS011;20063;51.730;11.110;2022-09-19T16:23:54;7.45;;;1.38;;
33738;SDS011;20063;51.730;11.110;2022-09-19T16:26:20;12.02;;;1.92;;
33738;SDS011;20063;51.730;11.110;2022-09-19T16:28:54;8.13;;;1.80;;
33738;SDS011;20063;51.730;11.110;2022-09-19T16:33:52;4.85;;;1.13;;
33738;SDS011;20063;51.730;11.110;2022-09-19T16:36:23;7.03;;;1.58;;
33738;SDS011;20063;51.730;11.110;2022-09-19T16:41:35;8.25;;;1.45;;
33738;SDS011;20063;51.730;11.110;2022-09-19T16:46:55;8.07;;;1.85;;
33738;SDS011;20063;51.730;11.110;2022-09-19T16:49:25;7.78;;;2.22;;
33738;SDS011;20063;51.730;11.110;2022-09-19T16:51:51;13.73;;;1.90;;
33738;SDS011;20063;51.730;11.110;2022-09-19T16:54:18;11.55;;;2.22;;
33738;SDS011;20063;51.730;11.110;2022-09-19T16:56:45;15.15;;;2.10;;
33738;SDS011;20063;51.730;11.110;2022-09-19T16:59:12;12.13;;;2.72;;
33738;SDS011;20063;51.730;11.110;2022-09-19T17:01:39;10.05;;;2.30;;
33738;SDS011;20063;51.730;11.110;2022-09-19T17:04:05;14.77;;;2.60;;
33738;SDS011;20063;51.730;11.110;2022-09-19T17:06:32;9.45;;;1.73;;
33738;SDS011;20063;51.730;11.110;2022-09-19T17:08:57;8.65;;;2.15;;
33738;SDS011;20063;51.730;11.110;2022-09-19T17:11:26;10.60;;;2.05;;
33738;SDS011;20063;51.730;11.110;2022-09-19T17:13:51;9.82;;;2.17;;
33738;SDS011;20063;51.730;11.110;2022-09-19T17:16:17;9.20;;;2.60;;
33738;SDS011;20063;51.730;11.110;2022-09-19T17:18:44;7.88;;;1.92;;
33738;SDS011;20063;51.730;11.110;2022-09-19T17:21:12;12.38;;;2.28;;
33738;SDS011;20063;51.730;11.110;2022-09-19T17:23:40;7.25;;;1.92;;
33738;SDS011;20063;51.730;11.110;2022-09-19T17:26:08;9.93;;;1.67;;
33738;SDS011;20063;51.730;11.110;2022-09-19T17:28:34;3.83;;;1.30;;
33738;SDS011;20063;51.730;11.110;2022-09-19T17:31:00;10.88;;;2.08;;
33738;SDS011;20063;51.730;11.110;2022-09-19T17:33:26;5.28;;;1.63;;
33738;SDS011;20063;51.730;11.110;2022-09-19T17:35:54;1.83;;;1.05;;
33738;SDS011;20063;51.730;11.110;2022-09-19T17:38:23;8.25;;;1.08;;
33738;SDS011;20063;51.730;11.110;2022-09-19T17:40:50;5.22;;;1.40;;
33738;SDS011;20063;51.730;11.110;2022-09-19T17:43:16;5.03;;;1.75;;
33738;SDS011;20063;51.730;11.110;2022-09-19T17:45:44;4.75;;;1.77;;
33738;SDS011;20063;51.730;11.110;2022-09-19T17:48:11;2.95;;;1.23;;
33738;SDS011;20063;51.730;11.110;2022-09-19T17:50:38;5.38;;;1.77;;
33738;SDS011;20063;51.730;11.110;2022-09-19T17:53:04;1.58;;;1.02;;
33738;SDS011;20063;51.730;11.110;2022-09-19T17:55:30;1.73;;;1.17;;
33738;SDS011;20063;51.730;11.110;2022-09-19T17:57:56;5.40;;;1.70;;